YCNX weather

Cooranga Airport
New South Wales, Australia

Public forecast

Using degrees Celsius for public forecast. Weather courtesy of forecast.io.

Closest aviation weather report (METAR) to Cooranga Airport

Closest report is Moree Airport, 54.8 nm (101.5 km) WSW. Retrieved 2020/07/16 04:00 UTC (55 minutes ago):

YMOR 160400Z AUTO 23015KT 9999 // NCD 16/03 Q1017

Closest aviation forecast (TAF) to Cooranga Airport

Forecast is more than 6 hours old.

Closest forecast is RAAF Base Amberley, 133.8 nm (247.7 km) NE. Retrieved 2020/07/15 18:00 UTC (11 hours ago):

TAF YAMB 151646Z 1518/1618 36002KT 9999 MIFG NSC FM152100 31007KT CAVOK FM160100 25012KT CAVOK FM160930 30006KT CAVOK